Time;durP1;ratioP1;P1;durP2;ratioP2;P2;SDS_P1;SDS_P2;PMS_P1;PMS_P2;Temp;Humidity;BMP_temperature;BMP_pressure;BME280_temperature;BME280_humidity;BME280_pressure;Samples;Min_cycle;Max_cycle;Signal;HPM_P1;HPM_P2
2022/09/09 00:02:23;;;;;;;17.40;6.90;;;;;;;20.92;100.00;100026.25;5008958;28;20053;-81
2022/09/09 00:05:26;;;;;;;14.75;6.53;;;;;;;20.98;100.00;100030.66;5085020;22;20079;-82
2022/09/09 00:07:53;;;;;;;;;;;;;;;20.97;100.00;100029.03;5032193;28;20048;-86
2022/09/09 00:21:03;;;;;;;19.17;10.35;;;;;;;20.73;100.00;100030.19;5016623;28;20070;-80
2022/09/09 00:24:00;;;;;;;13.80;9.68;;;;;;;20.84;100.00;100029.34;5015287;28;20045;-82
2022/09/09 00:26:51;;;;;;;22.35;10.48;;;;;;;20.84;100.00;100037.44;4996079;28;20045;-82
2022/09/09 00:30:05;;;;;;;20.13;10.05;;;;;;;20.66;100.00;100031.38;5003830;28;20089;-81
2022/09/09 00:32:47;;;;;;;15.85;11.05;;;;;;;20.32;100.00;100025.03;5010197;28;20046;-81
2022/09/09 00:39:11;;;;;;;21.52;11.05;;;;;;;20.15;100.00;100018.75;5052649;23;20395;-82
2022/09/09 00:42:13;;;;;;;20.98;10.32;;;;;;;20.17;100.00;100032.78;5038015;28;20072;-86
2022/09/09 00:48:00;;;;;;;18.30;10.38;;;;;;;20.06;100.00;100027.16;5031243;22;20054;-82
2022/09/09 00:51:11;;;;;;;18.08;9.38;;;;;;;20.25;100.00;100035.09;5032826;28;20050;-83
2022/09/09 00:54:31;;;;;;;15.68;9.05;;;;;;;20.08;100.00;100033.13;5034100;28;20076;-83
2022/09/09 01:01:44;;;;;;;14.25;9.70;;;;;;;20.32;100.00;100030.41;5037747;28;20076;-81
2022/09/09 01:05:46;;;;;;;17.45;9.48;;;;;;;19.98;100.00;100027.53;5069038;23;20108;-81
2022/09/09 01:08:45;;;;;;;15.20;9.60;;;;;;;19.82;100.00;100025.53;5013700;22;20036;-83
2022/09/09 01:11:42;;;;;;;18.98;8.75;;;;;;;19.78;100.00;100028.94;5042191;23;20042;-82
2022/09/09 01:14:52;;;;;;;16.65;8.20;;;;;;;19.64;100.00;100020.28;5040888;22;20029;-85
2022/09/09 01:17:59;;;;;;;16.90;8.45;;;;;;;19.58;100.00;100016.66;5017046;28;20044;-84
2022/09/09 01:24:10;;;;;;;14.37;6.97;;;;;;;19.47;100.00;100011.28;3959471;26;20046;-84
2022/09/09 01:27:08;;;;;;;17.35;6.30;;;;;;;19.66;100.00;100015.47;4975387;29;20051;-81
2022/09/09 01:30:12;;;;;;;12.83;5.80;;;;;;;19.55;100.00;100002.88;4992405;28;20036;-83
2022/09/09 01:35:35;;;;;;;12.95;4.93;;;;;;;19.47;100.00;100005.88;4907860;26;20046;-85
2022/09/09 01:38:08;;;;;;;16.73;6.30;;;;;;;19.50;100.00;99994.66;5036611;28;20038;-83
2022/09/09 01:44:45;;;;;;;13.82;6.28;;;;;;;19.32;100.00;99997.44;5035795;28;20079;-83
2022/09/09 01:50:43;;;;;;;9.27;4.50;;;;;;;19.19;100.00;99997.66;5033923;28;20046;-82
2022/09/09 01:53:22;;;;;;;7.75;3.65;;;;;;;19.30;100.00;99994.97;5018650;28;20046;-80
2022/09/09 01:56:29;;;;;;;6.97;3.40;;;;;;;19.43;100.00;99993.97;5029254;28;20042;-81
2022/09/09 01:59:11;;;;;;;12.27;4.15;;;;;;;19.17;100.00;99991.69;5019053;28;20048;-80
2022/09/09 02:02:15;;;;;;;6.10;3.78;;;;;;;19.02;100.00;99990.22;5035456;28;20042;-80
2022/09/09 02:05:27;;;;;;;10.60;3.47;;;;;;;18.98;100.00;99991.75;5049569;22;20033;-85
2022/09/09 02:08:17;;;;;;;11.85;3.72;;;;;;;18.98;100.00;99994.44;5019842;28;20136;-81
2022/09/09 02:11:20;;;;;;;4.35;2.50;;;;;;;18.95;100.00;99989.53;5035113;28;20049;-81
2022/09/09 02:14:25;;;;;;;7.43;2.77;;;;;;;18.96;100.00;99993.84;5035678;28;20026;-80
2022/09/09 02:17:15;;;;;;;5.13;2.65;;;;;;;19.02;100.00;99992.91;5036498;23;20034;-80
2022/09/09 02:20:18;;;;;;;10.32;2.95;;;;;;;19.17;100.00;99991.69;5034599;28;20050;-80
2022/09/09 02:25:46;;;;;;;8.43;3.00;;;;;;;18.97;100.00;99995.50;4076511;26;20048;-81
2022/09/09 02:28:25;;;;;;;10.25;3.10;;;;;;;18.91;100.00;99996.41;5022279;28;20038;-81
2022/09/09 02:33:55;;;;;;;7.45;2.33;;;;;;;19.22;100.00;99994.50;3097427;26;20109;-82
2022/09/09 02:36:43;;;;;;;10.68;2.83;;;;;;;18.97;100.00;99992.81;5033815;28;20452;-81
2022/09/09 02:39:10;;;;;;;5.85;2.92;;;;;;;19.00;100.00;99997.72;5034772;28;20022;-84
2022/09/09 02:42:35;;;;;;;9.18;2.50;;;;;;;18.98;100.00;99997.13;5022816;28;20042;-83
2022/09/09 02:46:11;;;;;;;8.95;2.45;;;;;;;18.92;100.00;99995.38;5037688;28;20041;-79
2022/09/09 02:49:24;;;;;;;8.52;2.38;;;;;;;18.77;100.00;99992.25;4947093;29;20052;-84
2022/09/09 02:52:22;;;;;;;5.85;2.22;;;;;;;18.93;100.00;99999.66;4953556;29;20047;-82
2022/09/09 02:55:14;;;;;;;22.23;2.58;;;;;;;18.63;100.00;100001.53;4955480;29;20040;-81
2022/09/09 02:57:46;;;;;;;10.02;2.58;;;;;;;18.56;100.00;99992.75;4939447;29;20039;-80
2022/09/09 03:00:24;;;;;;;11.88;2.50;;;;;;;18.51;100.00;99989.94;4976175;28;20089;-78
2022/09/09 03:02:55;;;;;;;7.72;2.50;;;;;;;18.44;100.00;99990.00;5040510;23;20053;-79
2022/09/09 03:05:40;;;;;;;10.40;2.22;;;;;;;18.42;100.00;99997.47;5041836;23;20069;-80
2022/09/09 03:08:09;;;;;;;;;;;;;;;18.57;100.00;99986.34;5036440;28;20034;-81
2022/09/09 03:11:13;;;;;;;6.05;2.47;;;;;;;18.69;100.00;99994.47;5036390;28;19917;-81
2022/09/09 03:13:42;;;;;;;6.45;3.15;;;;;;;18.72;100.00;99992.16;5043997;23;20057;-82
2022/09/09 03:16:14;;;;;;;6.53;3.35;;;;;;;18.58;100.00;99996.03;5036216;28;20041;-80
2022/09/09 03:18:52;;;;;;;10.88;3.58;;;;;;;18.58;100.00;99991.50;5035866;28;20108;-81
2022/09/09 03:21:38;;;;;;;7.97;2.90;;;;;;;18.60;100.00;99988.56;5034182;28;20049;-80
2022/09/09 03:24:09;;;;;;;6.47;3.22;;;;;;;18.50;100.00;99989.13;5029784;28;20108;-80
2022/09/09 03:26:38;;;;;;;14.43;3.80;;;;;;;18.42;100.00;99986.72;5032305;28;20045;-83
2022/09/09 03:29:18;;;;;;;14.93;3.70;;;;;;;18.41;100.00;99981.56;5033180;28;20042;-82
2022/09/09 03:31:53;;;;;;;14.95;4.07;;;;;;;18.45;100.00;99977.41;5034165;28;20048;-82
2022/09/09 03:34:22;;;;;;;8.98;3.72;;;;;;;18.37;100.00;99969.66;5035447;28;20033;-80
2022/09/09 03:36:53;;;;;;;8.48;3.25;;;;;;;18.19;100.00;99969.69;5033239;28;20046;-82
2022/09/09 03:39:50;;;;;;;11.90;4.53;;;;;;;18.14;100.00;99972.22;5035754;28;20448;-86
2022/09/09 03:42:27;;;;;;;13.15;4.30;;;;;;;18.00;100.00;99966.19;5035270;28;20041;-84
2022/09/09 03:44:57;;;;;;;10.43;4.28;;;;;;;17.93;100.00;99960.88;5032932;28;20050;-81
2022/09/09 03:50:10;;;;;;;13.02;3.67;;;;;;;17.76;100.00;99959.03;5034011;28;20042;-81
2022/09/09 03:53:00;;;;;;;9.65;2.97;;;;;;;17.62;100.00;99958.34;5036336;28;20022;-82
2022/09/09 03:56:06;;;;;;;8.48;3.63;;;;;;;17.69;100.00;99960.97;5035046;28;20069;-83
2022/09/09 04:04:22;;;;;;;8.73;3.75;;;;;;;17.52;100.00;99958.00;4892637;26;20046;-81
2022/09/09 04:07:23;;;;;;;9.13;3.00;;;;;;;17.60;100.00;99955.06;5014262;23;20047;-81
2022/09/09 04:10:16;;;;;;;6.50;3.38;;;;;;;17.44;100.00;99956.41;4993307;28;20038;-85
2022/09/09 04:12:45;;;;;;;11.18;3.40;;;;;;;17.56;100.00;99959.25;4992645;28;20070;-80
2022/09/09 04:15:18;;;;;;;9.20;3.15;;;;;;;17.50;100.00;99949.34;4976306;28;20063;-79
2022/09/09 04:17:51;;;;;;;8.60;2.83;;;;;;;17.39;100.00;99952.78;4994437;28;20035;-83
2022/09/09 04:20:21;;;;;;;7.63;3.03;;;;;;;17.49;100.00;99948.56;5019546;23;20412;-81
2022/09/09 04:23:06;;;;;;;11.02;2.80;;;;;;;17.67;100.00;99945.09;5044014;22;20041;-86
2022/09/09 04:25:36;;;;;;;9.00;3.03;;;;;;;17.58;100.00;99950.97;5018970;28;20129;-82
2022/09/09 04:28:27;;;;;;;5.82;3.15;;;;;;;17.66;100.00;99948.84;5025362;28;20046;-82
2022/09/09 04:30:59;;;;;;;13.23;3.45;;;;;;;17.43;100.00;99949.41;5024726;28;20096;-80
2022/09/09 04:33:34;;;;;;;8.82;2.67;;;;;;;17.53;100.00;99948.94;5043296;28;20034;-80
2022/09/09 04:36:02;;;;;;;14.93;2.72;;;;;;;17.45;100.00;99951.88;5022722;28;20050;-83
2022/09/09 04:38:37;;;;;;;8.32;3.00;;;;;;;17.31;100.00;99948.50;5020145;28;20046;-81
2022/09/09 04:41:04;;;;;;;10.40;3.30;;;;;;;17.18;100.00;99956.66;5022896;28;20041;-83
2022/09/09 04:43:34;;;;;;;8.48;2.95;;;;;;;17.38;100.00;99954.63;5026272;28;20030;-83
2022/09/09 04:46:03;;;;;;;9.10;2.55;;;;;;;17.35;100.00;99946.22;5008463;28;20124;-83
2022/09/09 04:48:44;;;;;;;14.05;3.15;;;;;;;17.29;100.00;99952.44;5023512;28;20030;-80
2022/09/09 04:51:31;;;;;;;10.35;2.97;;;;;;;17.25;100.00;99956.59;5025460;28;20034;-82
2022/09/09 04:54:03;;;;;;;13.95;4.22;;;;;;;17.34;100.00;99956.09;5024113;28;20050;-87
2022/09/09 04:56:30;;;;;;;13.48;3.83;;;;;;;17.10;100.00;99948.91;5021530;28;20108;-82
2022/09/09 04:58:57;;;;;;;11.82;3.72;;;;;;;17.31;100.00;99961.06;5039396;28;20040;-81
2022/09/09 05:01:43;;;;;;;9.52;3.63;;;;;;;17.20;100.00;99954.56;5024210;28;20030;-85
2022/09/09 05:04:12;;;;;;;13.30;3.97;;;;;;;17.29;100.00;99965.84;5026184;28;20030;-87
2022/09/09 05:06:55;;;;;;;10.38;4.10;;;;;;;17.25;100.00;99961.94;5027765;28;20065;-82
2022/09/09 05:09:22;;;;;;;11.85;4.15;;;;;;;17.53;100.00;99970.38;5022674;28;20037;-84
2022/09/09 05:11:51;;;;;;;9.27;3.80;;;;;;;17.58;100.00;99965.19;5022539;28;20122;-88
2022/09/09 05:14:37;;;;;;;13.50;4.07;;;;;;;17.70;100.00;99974.13;5024129;28;20114;-90
2022/09/09 05:17:33;;;;;;;15.13;4.18;;;;;;;17.80;100.00;99977.13;5019650;28;20515;-87
2022/09/09 05:20:29;;;;;;;10.77;3.40;;;;;;;18.43;100.00;99977.63;5022820;28;20038;-87
2022/09/09 05:23:05;;;;;;;12.98;4.18;;;;;;;18.33;100.00;99982.69;5020453;28;20095;-87
2022/09/09 05:25:36;;;;;;;14.70;3.63;;;;;;;18.60;100.00;99983.22;5006910;28;20390;-87
2022/09/09 05:28:37;;;;;;;19.77;3.15;;;;;;;18.84;100.00;99995.69;5025286;28;20397;-90
2022/09/09 05:31:25;;;;;;;14.50;3.15;;;;;;;18.96;100.00;100001.06;5011518;28;20062;-89
2022/09/09 05:34:04;;;;;;;10.23;2.90;;;;;;;18.95;100.00;100002.97;5025610;28;20057;-84
2022/09/09 05:36:58;;;;;;;13.13;2.30;;;;;;;19.10;100.00;100006.03;5004248;28;20114;-89
2022/09/09 05:39:32;;;;;;;8.80;2.40;;;;;;;19.33;100.00;100002.56;4999153;28;20046;-87
2022/09/09 05:42:04;;;;;;;11.23;2.70;;;;;;;19.61;100.00;100010.00;5026187;28;20068;-82
2022/09/09 05:44:32;;;;;;;8.27;2.25;;;;;;;20.64;100.00;100012.78;5016012;28;20405;-83
2022/09/09 05:47:40;;;;;;;7.65;1.83;;;;;;;21.06;100.00;100018.69;5009419;28;20022;-86
2022/09/09 05:51:02;;;;;;;8.43;2.00;;;;;;;21.09;100.00;100019.03;5010528;28;20080;-86
2022/09/09 05:53:51;;;;;;;11.13;2.28;;;;;;;21.50;100.00;100022.44;5027744;28;20069;-84
2022/09/09 05:56:35;;;;;;;6.97;1.92;;;;;;;21.49;100.00;100027.00;5009109;28;20042;-83
2022/09/09 05:59:53;;;;;;;6.28;1.88;;;;;;;21.96;100.00;100030.19;5020653;28;20086;-86
2022/09/09 06:02:51;;;;;;;10.38;2.20;;;;;;;22.35;99.25;100036.38;5028403;28;20117;-84
2022/09/09 06:05:29;;;;;;;12.68;2.70;;;;;;;22.35;99.57;100035.56;5014079;28;20042;-85
2022/09/09 06:08:39;;;;;;;9.15;2.80;;;;;;;23.31;94.13;100045.56;5036825;28;20173;-87
2022/09/09 06:11:45;;;;;;;10.02;2.40;;;;;;;23.26;94.14;100039.31;5002570;28;20108;-84
2022/09/09 06:14:16;;;;;;;11.87;2.43;;;;;;;23.11;91.90;100045.38;5014958;28;20033;-86
2022/09/09 06:19:31;;;;;;;7.55;1.73;;;;;;;23.06;92.55;100043.44;1389722;26;20057;-83
2022/09/09 06:22:00;;;;;;;8.75;1.75;;;;;;;24.10;84.41;100043.75;5012653;28;20037;-81
2022/09/09 06:24:37;;;;;;;9.40;1.90;;;;;;;23.24;88.29;100055.75;5007598;28;20042;-84
2022/09/09 06:27:23;;;;;;;12.68;2.53;;;;;;;23.06;91.69;100046.16;5014365;28;20039;-81
2022/09/09 06:29:48;;;;;;;10.75;1.65;;;;;;;24.03;86.73;100043.16;5002141;28;20045;-81
2022/09/09 06:32:42;;;;;;;8.60;2.00;;;;;;;24.05;85.86;100043.72;5052342;23;20073;-84
2022/09/09 06:37:48;;;;;;;15.48;2.53;;;;;;;24.97;81.46;100047.66;5031908;28;20061;-87
2022/09/09 06:40:43;;;;;;;8.35;2.30;;;;;;;24.79;79.96;100051.66;5034516;28;20025;-84
2022/09/09 06:43:17;;;;;;;13.05;2.53;;;;;;;24.88;80.12;100050.09;5013429;28;20054;-86
2022/09/09 06:46:27;;;;;;;10.68;2.20;;;;;;;25.23;77.18;100053.94;5030164;28;20041;-87
2022/09/09 06:48:59;;;;;;;9.40;2.38;;;;;;;24.59;80.46;100046.97;4994791;28;20073;-81
2022/09/09 06:51:35;;;;;;;12.43;2.42;;;;;;;25.08;79.42;100050.16;5024938;28;20116;-82
2022/09/09 06:54:04;;;;;;;16.55;3.17;;;;;;;24.84;81.19;100043.59;5031039;28;20068;-80
2022/09/09 06:56:42;;;;;;;10.63;3.35;;;;;;;24.45;83.88;100051.28;5031065;28;20030;-81
2022/09/09 06:59:18;;;;;;;12.20;3.30;;;;;;;24.80;82.92;100053.28;5026640;28;20501;-81
2022/09/09 07:01:45;;;;;;;15.93;3.20;;;;;;;24.73;83.08;100057.31;5023874;28;20045;-81
2022/09/09 07:04:13;;;;;;;9.60;2.88;;;;;;;24.97;81.16;100048.50;5032042;28;20069;-82
2022/09/09 07:06:46;;;;;;;7.47;2.50;;;;;;;24.79;80.76;100050.88;5022579;28;20026;-86
2022/09/09 07:09:19;;;;;;;7.63;2.42;;;;;;;24.64;78.76;100051.63;5025769;28;21097;-82
2022/09/09 07:11:53;;;;;;;11.57;2.95;;;;;;;24.40;80.85;100053.94;5014583;28;20049;-83
2022/09/09 07:14:22;;;;;;;11.43;2.63;;;;;;;24.66;80.40;100050.25;5032290;28;20041;-86
2022/09/09 07:16:53;;;;;;;8.70;2.33;;;;;;;25.31;79.30;100058.84;5032559;28;20042;-83
2022/09/09 07:19:20;;;;;;;17.63;3.22;;;;;;;25.71;79.98;100058.91;5015902;28;20042;-82
2022/09/09 07:21:50;;;;;;;12.98;3.40;;;;;;;26.20;75.32;100059.94;5002804;28;20042;-88
2022/09/09 07:24:24;;;;;;;10.88;3.67;;;;;;;26.10;75.83;100065.34;4998672;28;20042;-87
2022/09/09 07:27:04;;;;;;;11.98;5.10;;;;;;;25.96;76.83;100060.75;5015307;28;21585;-83
2022/09/09 07:29:33;;;;;;;17.23;5.72;;;;;;;26.65;74.33;100055.41;5016170;28;20046;-85
2022/09/09 07:32:10;;;;;;;10.40;4.70;;;;;;;26.88;72.89;100060.22;5012822;28;20034;-88
2022/09/09 07:34:41;;;;;;;20.50;5.85;;;;;;;27.65;69.92;100067.59;5026555;28;20033;-84
2022/09/09 07:37:35;;;;;;;13.82;5.82;;;;;;;27.10;70.59;100062.53;5002896;28;20034;-84
2022/09/09 07:43:29;;;;;;;16.40;5.50;;;;;;;27.91;68.20;100057.28;5003701;28;20139;-83
2022/09/09 07:46:39;;;;;;;9.73;5.07;;;;;;;27.56;67.81;100052.97;4982737;28;20050;-85
2022/09/09 07:49:32;;;;;;;21.73;6.05;;;;;;;27.80;65.92;100053.03;4998341;28;20046;-83
2022/09/09 07:52:10;;;;;;;19.75;6.53;;;;;;;27.26;69.33;100046.91;4994392;28;20046;-83
2022/09/09 07:54:45;;;;;;;17.40;6.45;;;;;;;26.76;73.27;100042.56;5016555;28;20042;-83
2022/09/09 07:57:15;;;;;;;12.52;5.53;;;;;;;26.61;74.31;100046.19;5002712;28;20052;-83
2022/09/09 07:59:41;;;;;;;14.95;5.32;;;;;;;26.92;72.87;100042.25;5029584;28;20069;-85
2022/09/09 08:02:15;;;;;;;16.75;5.70;;;;;;;27.42;70.99;100045.72;5022950;28;20484;-87
2022/09/09 08:05:05;;;;;;;11.52;6.30;;;;;;;27.54;71.16;100048.94;5034067;28;20050;-83
2022/09/09 08:07:32;;;;;;;;;;;;;;;27.64;69.61;100055.06;5025086;28;20041;-84
2022/09/09 08:18:04;;;;;;;13.68;6.80;;;;;;;28.29;71.19;100082.00;5185537;23;20052;-84
2022/09/09 08:20:32;;;;;;;16.58;7.45;;;;;;;28.51;71.08;100076.81;5034154;28;20038;-81
2022/09/09 08:23:02;;;;;;;19.25;8.30;;;;;;;28.53;71.87;100080.91;5033960;28;20053;-85
2022/09/09 08:25:29;;;;;;;22.85;9.88;;;;;;;29.19;70.62;100086.31;5027972;28;20074;-83
2022/09/09 08:28:03;;;;;;;15.52;8.68;;;;;;;29.46;69.62;100079.41;5032604;28;20053;-83
2022/09/09 08:30:47;;;;;;;19.85;10.55;;;;;;;28.90;71.36;100074.72;5052908;28;20050;-85
2022/09/09 08:33:17;;;;;;;19.92;9.88;;;;;;;28.65;73.18;100077.75;5026243;28;20055;-82
2022/09/09 08:35:50;;;;;;;23.10;9.88;;;;;;;28.55;73.70;100086.88;5013151;28;20048;-84
2022/09/09 08:38:20;;;;;;;22.38;8.77;;;;;;;29.29;70.50;100085.38;5031928;28;20030;-84
2022/09/09 08:40:59;;;;;;;15.68;7.70;;;;;;;28.93;72.00;100081.50;5030082;28;20133;-80
2022/09/09 08:43:27;;;;;;;19.60;9.40;;;;;;;28.77;72.43;100078.16;5012030;28;20069;-83
2022/09/09 08:46:10;;;;;;;24.27;8.00;;;;;;;29.34;70.12;100092.66;5031728;28;20034;-83
2022/09/09 08:49:46;;;;;;;23.77;9.57;;;;;;;29.38;71.53;100093.72;5034744;28;20090;-82
2022/09/09 08:52:31;;;;;;;18.80;8.90;;;;;;;29.53;73.97;100102.47;5028645;28;20049;-86
2022/09/09 08:55:14;;;;;;;19.27;9.65;;;;;;;29.51;73.71;100103.88;5032757;28;20037;-82
2022/09/09 08:58:37;;;;;;;19.52;9.13;;;;;;;29.76;74.44;100106.22;5016472;28;20022;-88
2022/09/09 09:05:46;;;;;;;17.25;8.18;;;;;;;30.27;72.07;100115.16;5013950;28;20061;-88
2022/09/09 09:08:53;;;;;;;23.15;10.50;;;;;;;30.94;71.12;100126.44;4999205;28;20018;-90
2022/09/09 09:11:25;;;;;;;27.42;12.00;;;;;;;31.11;69.68;100137.59;5030186;28;20060;-87
2022/09/09 09:14:34;;;;;;;28.77;11.75;;;;;;;31.08;72.10;100137.41;5031878;28;20026;-88
2022/09/09 09:20:18;;;;;;;;;;;;;;;30.44;73.57;100139.22;5079924;23;20053;-86
2022/09/09 09:23:18;;;;;;;25.17;12.38;;;;;;;30.20;74.43;100138.53;5032056;28;19901;-80
2022/09/09 09:26:15;;;;;;;24.15;12.15;;;;;;;29.74;77.87;100130.28;5031801;28;20061;-86
2022/09/09 09:28:53;;;;;;;24.83;12.93;;;;;;;30.07;77.07;100139.31;5025238;28;20101;-87
2022/09/09 09:35:00;;;;;;;24.30;12.55;;;;;;;30.41;75.29;100139.00;5026774;28;20029;-85
2022/09/09 09:37:39;;;;;;;25.67;12.40;;;;;;;30.14;76.70;100134.28;5017803;28;20042;-86
2022/09/09 09:40:28;;;;;;;34.70;14.48;;;;;;;30.24;76.63;100140.38;5032097;28;20038;-85
2022/09/09 09:42:58;;;;;;;27.52;13.00;;;;;;;30.24;75.93;100145.03;5084873;23;20072;-85
2022/09/09 09:46:00;;;;;;;27.70;13.50;;;;;;;29.89;76.63;100143.75;5021237;28;20018;-89
2022/09/09 09:48:27;;;;;;;25.27;13.20;;;;;;;30.11;76.98;100146.63;4966944;28;20098;-85
2022/09/09 09:51:19;;;;;;;24.30;11.80;;;;;;;30.59;74.39;100144.38;4986413;28;20050;-86
2022/09/09 09:54:15;;;;;;;25.80;12.60;;;;;;;30.56;75.91;100152.41;4968571;28;20043;-85
2022/09/09 09:56:51;;;;;;;28.00;13.27;;;;;;;30.42;73.74;100141.44;4980140;29;20059;-83
2022/09/09 09:59:43;;;;;;;23.27;12.82;;;;;;;30.37;75.50;100143.41;5013380;28;20496;-84
2022/09/09 10:02:43;;;;;;;24.42;11.63;;;;;;;30.36;74.43;100137.13;5016266;28;20101;-87
2022/09/09 10:05:36;;;;;;;23.02;12.00;;;;;;;30.85;71.49;100139.22;5111294;23;20049;-87
2022/09/09 10:12:03;;;;;;;22.05;11.50;;;;;;;30.45;73.00;100134.56;5032965;28;20081;-88
2022/09/09 10:15:29;;;;;;;23.98;10.40;;;;;;;30.07;72.85;100140.13;5048276;28;20124;-85
2022/09/09 10:18:26;;;;;;;17.40;9.93;;;;;;;30.11;72.12;100140.34;5039724;28;20030;-82
2022/09/09 10:21:22;;;;;;;17.75;8.07;;;;;;;30.21;71.56;100140.16;5031591;28;20054;-85
2022/09/09 10:28:41;;;;;;;17.88;7.20;;;;;;;29.46;74.43;100131.28;5035737;28;20040;-81
2022/09/09 10:31:17;;;;;;;16.45;8.30;;;;;;;30.11;71.72;100129.41;5004182;28;20049;-83
2022/09/09 10:34:06;;;;;;;18.40;8.73;;;;;;;30.24;69.20;100131.34;5023773;28;20084;-80
2022/09/09 10:37:03;;;;;;;15.38;8.05;;;;;;;30.47;68.06;100124.13;5038518;28;20108;-87
2022/09/09 10:42:42;;;;;;;18.35;6.65;;;;;;;30.75;65.03;100115.63;5039312;28;20065;-86
2022/09/09 10:46:02;;;;;;;19.23;6.17;;;;;;;31.24;62.62;100119.50;5039553;28;20022;-84
2022/09/09 11:02:41;;;;;;;16.13;6.20;;;;;;;31.43;60.20;100122.06;5000334;23;20048;-84
2022/09/09 11:06:01;;;;;;;15.00;6.20;;;;;;;31.70;58.59;100119.25;5039109;28;20013;-81
2022/09/09 11:09:12;;;;;;;9.75;5.57;;;;;;;31.45;59.64;100114.38;5040100;28;20036;-85
2022/09/09 11:12:02;;;;;;;12.45;5.00;;;;;;;32.30;57.56;100105.13;5031304;28;20050;-84
2022/09/09 11:15:43;;;;;;;14.57;4.82;;;;;;;32.95;53.29;100108.75;5037929;28;20076;-86
2022/09/09 11:19:11;;;;;;;10.27;5.45;;;;;;;33.30;52.74;100115.13;5035304;28;20022;-85
2022/09/09 11:22:11;;;;;;;14.73;5.95;;;;;;;33.22;53.33;100103.00;5039856;28;20084;-86
2022/09/09 12:33:30;;;;;;;8.27;3.00;;;;;;;28.20;71.46;100047.22;5592194;23;20038;-85
2022/09/09 12:37:24;;;;;;;9.77;3.70;;;;;;;27.78;74.42;100046.25;4974316;28;20051;-85
2022/09/09 15:12:24;;;;;;;8.10;2.65;;;;;;;27.54;69.54;99961.81;1154467;26;20058;-84
2022/09/09 15:14:50;;;;;;;8.13;2.65;;;;;;;27.42;70.21;99964.06;4990375;28;20039;-83
2022/09/09 15:17:43;;;;;;;10.13;2.58;;;;;;;27.55;69.16;99958.78;4990913;28;20037;-84
2022/09/09 15:20:28;;;;;;;6.63;2.17;;;;;;;27.23;70.92;99964.78;4987908;28;20422;-86
2022/09/09 15:22:54;;;;;;;12.48;3.03;;;;;;;27.38;69.18;99969.25;5004368;28;20028;-87
2022/09/09 15:25:56;;;;;;;6.28;2.70;;;;;;;27.33;70.61;99966.59;4995919;28;20030;-82
2022/09/09 15:28:45;;;;;;;10.50;2.83;;;;;;;27.15;72.03;99957.22;5009597;28;20030;-82
2022/09/09 15:31:42;;;;;;;5.43;1.90;;;;;;;27.31;72.27;99957.88;5008313;28;20107;-87
2022/09/09 15:58:28;;;;;;;5.60;2.15;;;;;;;27.39;71.48;99929.25;5563753;23;20038;-90
2022/09/09 16:01:59;;;;;;;11.75;2.40;;;;;;;27.67;70.19;99928.47;5039326;28;20041;-91
2022/09/09 16:04:53;;;;;;;7.68;2.25;;;;;;;27.22;72.49;99933.19;5017936;28;20054;-89
2022/09/09 16:10:50;;;;;;;9.20;2.08;;;;;;;27.05;74.80;99932.81;5309524;23;20093;-90
2022/09/09 16:18:54;;;;;;;10.27;2.50;;;;;;;27.49;71.89;99931.91;5235715;23;20540;-92
2022/09/09 16:22:06;;;;;;;6.45;2.20;;;;;;;27.61;71.67;99935.03;5037452;28;20026;-91
2022/09/09 16:39:14;;;;;;;6.30;2.15;;;;;;;27.27;73.19;99934.25;5008567;28;20065;-83
2022/09/09 16:41:41;;;;;;;12.95;2.20;;;;;;;27.31;73.12;99932.59;5007427;28;20042;-83
2022/09/09 16:44:09;;;;;;;8.10;2.28;;;;;;;27.40;72.79;99928.16;4993464;28;20030;-80
2022/09/09 16:46:38;;;;;;;6.43;2.22;;;;;;;27.23;73.28;99929.41;5009081;28;20048;-80
2022/09/09 16:49:09;;;;;;;8.15;2.40;;;;;;;27.12;74.58;99927.84;5011681;28;20042;-82
2022/09/09 16:52:00;;;;;;;12.88;2.65;;;;;;;27.12;74.19;99925.13;5010180;28;20030;-83
2022/09/09 16:54:29;;;;;;;7.55;2.13;;;;;;;27.01;75.29;99930.97;4997621;28;20054;-84
2022/09/09 16:57:53;;;;;;;8.07;2.90;;;;;;;27.14;75.51;99930.31;5028951;23;20176;-88
2022/09/09 17:01:01;;;;;;;8.35;2.63;;;;;;;27.16;75.75;99930.81;5017401;28;20037;-88
2022/09/09 17:09:31;;;;;;;10.07;2.13;;;;;;;26.69;77.86;99918.63;3851421;22;20068;-88
2022/09/09 17:12:35;;;;;;;11.38;2.13;;;;;;;26.63;78.76;99924.38;5013495;28;20102;-88
2022/09/09 17:16:00;;;;;;;6.63;1.90;;;;;;;26.57;79.19;99926.34;4970922;28;20054;-92
2022/09/09 17:24:40;;;;;;;10.65;2.40;;;;;;;26.59;79.26;99931.47;5123351;23;20062;-89
2022/09/09 17:27:50;;;;;;;9.10;2.42;;;;;;;26.51;80.75;99932.09;5030369;28;20122;-89
2022/09/09 17:30:41;;;;;;;6.78;2.10;;;;;;;26.63;80.03;99937.97;5024854;28;20060;-90
2022/09/09 17:33:10;;;;;;;8.40;1.95;;;;;;;26.49;80.71;99939.69;5036504;28;20048;-90
2022/09/09 17:36:12;;;;;;;8.80;2.30;;;;;;;26.35;82.10;99944.13;5019344;28;20041;-88
2022/09/09 17:42:09;;;;;;;7.43;2.08;;;;;;;26.27;82.85;99947.44;5041581;22;20054;-90
2022/09/09 17:45:05;;;;;;;11.13;2.60;;;;;;;26.04;84.85;99944.25;5140258;23;20073;-91
2022/09/09 17:48:01;;;;;;;16.30;3.25;;;;;;;26.13;84.78;99936.31;5002515;28;20081;-91
2022/09/09 17:50:36;;;;;;;12.50;2.72;;;;;;;26.13;84.73;99948.00;5006882;28;20042;-89
2022/09/09 17:56:57;;;;;;;11.77;3.28;;;;;;;25.91;86.84;99944.84;5081267;23;20064;-88
2022/09/09 17:59:57;;;;;;;;;;;;;;;25.83;87.76;99952.72;4970481;28;20057;-91
2022/09/09 18:02:51;;;;;;;14.27;2.92;;;;;;;25.60;89.24;99951.41;5002800;28;19918;-90
2022/09/09 18:05:18;;;;;;;10.98;2.55;;;;;;;25.52;90.42;99958.19;5005545;28;20053;-88
2022/09/09 18:11:13;;;;;;;21.25;6.05;;;;;;;25.48;91.14;99957.13;5414872;22;20057;-89
2022/09/09 18:14:05;;;;;;;17.27;4.00;;;;;;;25.45;92.27;99967.69;5033418;28;20042;-89
2022/09/09 18:17:03;;;;;;;29.38;10.80;;;;;;;25.33;93.41;99961.72;5025797;28;20121;-87
2022/09/09 18:19:53;;;;;;;15.27;4.70;;;;;;;25.17;95.01;99961.75;5023441;28;20069;-89
2022/09/09 18:22:22;;;;;;;8.90;3.20;;;;;;;25.24;94.72;99966.06;5013616;28;20046;-83
2022/09/09 18:24:52;;;;;;;13.95;4.15;;;;;;;25.17;94.96;99961.75;5015523;28;20039;-88
2022/09/09 18:27:23;;;;;;;11.13;2.92;;;;;;;25.07;95.26;99969.06;5015321;28;20022;-85
2022/09/09 18:29:49;;;;;;;12.60;3.47;;;;;;;25.01;95.66;99973.66;5018995;28;20049;-82
2022/09/09 18:32:18;;;;;;;11.10;4.30;;;;;;;24.98;95.29;99976.91;5017608;28;20045;-82
2022/09/09 18:34:49;;;;;;;10.70;3.70;;;;;;;25.15;93.66;99982.91;5016287;28;20038;-81
2022/09/09 18:37:17;;;;;;;9.60;3.25;;;;;;;25.03;94.74;99982.34;5002115;28;20041;-81
2022/09/09 18:39:46;;;;;;;10.82;4.78;;;;;;;25.06;94.98;99981.78;5014219;28;20049;-81
2022/09/09 18:42:12;;;;;;;17.95;6.20;;;;;;;25.09;94.17;99981.25;5021314;28;20049;-81
2022/09/09 18:44:38;;;;;;;11.18;3.22;;;;;;;25.03;95.00;99982.34;5006910;28;20121;-83
2022/09/09 18:47:08;;;;;;;9.98;2.65;;;;;;;25.00;93.57;99982.88;5018502;28;20125;-81
2022/09/09 18:49:33;;;;;;;9.27;2.70;;;;;;;24.95;94.82;99985.59;5016340;28;20039;-82
2022/09/09 18:51:59;;;;;;;8.60;2.72;;;;;;;24.98;94.81;99986.94;5016578;28;20105;-83
2022/09/09 18:54:33;;;;;;;7.65;2.40;;;;;;;25.01;93.96;99989.13;5011649;28;20140;-83
2022/09/09 18:56:59;;;;;;;6.28;2.35;;;;;;;24.93;91.05;99993.16;5023411;28;20038;-84
2022/09/09 18:59:38;;;;;;;11.75;2.95;;;;;;;24.96;89.70;99987.19;5022561;28;20038;-93
2022/09/09 19:02:03;;;;;;;6.15;1.90;;;;;;;24.85;87.33;99987.47;5008443;28;20117;-89
2022/09/09 19:04:38;;;;;;;7.47;1.83;;;;;;;24.85;84.81;99999.13;5018250;28;20037;-85
2022/09/09 19:07:04;;;;;;;9.52;1.83;;;;;;;24.94;84.82;99993.97;5027336;28;20038;-84
2022/09/09 19:10:10;;;;;;;6.32;1.80;;;;;;;24.83;83.58;99997.75;5022693;28;20039;-84
2022/09/09 19:12:40;;;;;;;6.68;1.60;;;;;;;24.99;80.82;99991.28;5027217;28;20060;-85
2022/09/09 19:15:15;;;;;;;9.80;1.95;;;;;;;24.91;78.25;99989.09;5033889;28;20046;-84
2022/09/09 19:18:05;;;;;;;5.70;2.28;;;;;;;24.87;78.58;99994.25;5023365;28;20034;-86